Time;durP1;ratioP1;P1;durP2;ratioP2;P2;SDS_P1;SDS_P2;PMS_P1;PMS_P2;Temp;Humidity;BMP_temperature;BMP_pressure;BME280_temperature;BME280_humidity;BME280_pressure;Samples;Min_cycle;Max_cycle;Signal;HPM_P1;HPM_P2
2023/04/24 00:01:07;;;;;;;2.58;1.17;;;;;;;23.18;38.88;101086.19;4987836;28;20072;-49
2023/04/24 00:03:33;;;;;;;7.97;4.65;;;;;;;23.05;39.59;101083.31;4993342;28;20494;-51
2023/04/24 00:06:00;;;;;;;2.70;1.08;;;;;;;23.02;39.54;101081.13;4993218;28;20113;-49
2023/04/24 00:08:26;;;;;;;2.95;0.88;;;;;;;22.77;40.17;101071.16;4987474;28;20030;-48
2023/04/24 00:10:53;;;;;;;0.88;0.60;;;;;;;22.76;39.76;101077.69;4973374;28;20026;-50
2023/04/24 00:13:19;;;;;;;4.22;1.35;;;;;;;22.53;39.74;101087.38;4988446;28;20076;-51
2023/04/24 00:15:45;;;;;;;3.15;1.10;;;;;;;22.50;39.96;101085.22;4993097;28;20090;-47
2023/04/24 00:18:12;;;;;;;1.85;1.08;;;;;;;22.41;40.22;101076.78;4985289;28;20030;-51
2023/04/24 00:20:39;;;;;;;2.90;0.70;;;;;;;22.35;40.55;101083.34;4981841;28;20077;-51
2023/04/24 00:23:05;;;;;;;4.70;0.80;;;;;;;22.05;41.35;101081.53;4973564;28;20027;-47
2023/04/24 00:25:31;;;;;;;2.80;1.42;;;;;;;22.22;41.63;101073.88;4979162;28;20450;-51
2023/04/24 00:27:58;;;;;;;3.13;1.05;;;;;;;22.19;41.44;101079.88;4979639;28;20026;-51
2023/04/24 00:30:24;;;;;;;2.70;0.80;;;;;;;22.00;41.99;101081.53;4979592;28;20466;-50
2023/04/24 00:32:50;;;;;;;3.00;0.80;;;;;;;21.77;42.38;101077.50;4973149;28;20023;-50
2023/04/24 00:35:16;;;;;;;4.05;0.80;;;;;;;21.40;42.36;101086.78;4979754;28;20061;-50
2023/04/24 00:37:43;;;;;;;1.88;0.80;;;;;;;21.31;42.88;101080.22;4992723;28;20022;-47
2023/04/24 00:40:10;;;;;;;1.23;0.52;;;;;;;21.26;42.19;101086.44;4992310;28;20018;-51
2023/04/24 00:42:36;;;;;;;2.15;0.65;;;;;;;21.13;43.49;101078.84;4993001;28;20066;-51
2023/04/24 00:45:03;;;;;;;1.95;0.70;;;;;;;21.13;43.36;101089.72;4973218;28;20034;-49
2023/04/24 00:47:30;;;;;;;2.28;1.05;;;;;;;20.99;43.66;101092.16;4972988;28;20037;-50
2023/04/24 00:49:56;;;;;;;2.83;0.85;;;;;;;21.12;43.20;101098.97;4981599;28;20030;-47
2023/04/24 00:52:24;;;;;;;2.97;0.98;;;;;;;20.87;44.62;101091.56;4990359;28;20483;-50
2023/04/24 00:54:50;;;;;;;2.72;0.88;;;;;;;20.72;43.87;101084.19;4982015;28;20107;-47
2023/04/24 00:57:17;;;;;;;2.67;1.00;;;;;;;20.58;45.00;101083.06;4978890;28;20822;-48
2023/04/24 00:59:44;;;;;;;4.72;1.20;;;;;;;20.53;44.21;101096.63;4981091;28;20097;-50
2023/04/24 01:02:11;;;;;;;5.07;1.23;;;;;;;20.35;45.57;101095.16;4972907;28;20030;-47
2023/04/24 01:04:38;;;;;;;4.25;1.20;;;;;;;20.09;45.49;101099.66;4978821;28;20023;-52
2023/04/24 01:07:10;;;;;;;2.58;0.80;;;;;;;19.92;45.91;101099.00;4973189;28;20030;-50
2023/04/24 01:09:41;;;;;;;2.67;0.90;;;;;;;19.52;46.77;101097.59;4979172;28;20031;-50
2023/04/24 01:12:07;;;;;;;4.18;1.33;;;;;;;19.37;47.81;101102.88;4990820;28;20022;-50
2023/04/24 01:14:33;;;;;;;4.47;1.08;;;;;;;19.22;48.45;101106.31;4978244;28;20030;-50
2023/04/24 01:17:00;;;;;;;4.80;1.10;;;;;;;19.19;49.06;101102.19;4982625;28;20030;-51
2023/04/24 01:19:26;;;;;;;5.00;1.42;;;;;;;19.31;47.89;101101.22;4992007;28;20216;-50
2023/04/24 01:21:54;;;;;;;2.72;0.90;;;;;;;19.25;48.14;101101.16;4992327;28;20109;-48
2023/04/24 01:24:20;;;;;;;1.90;0.85;;;;;;;19.39;48.37;101103.47;4992714;28;20109;-50
2023/04/24 01:26:47;;;;;;;3.63;1.27;;;;;;;19.33;48.13;101104.50;4988607;28;20034;-49
2023/04/24 01:29:13;;;;;;;4.93;0.90;;;;;;;19.40;48.23;101099.66;4991880;28;20541;-49
2023/04/24 01:31:40;;;;;;;5.20;1.20;;;;;;;19.51;48.12;101094.06;4992303;28;20073;-51
2023/04/24 01:34:07;;;;;;;7.30;2.00;;;;;;;19.44;48.70;101096.19;4991948;28;20030;-48
2023/04/24 01:36:36;;;;;;;14.13;2.90;;;;;;;19.30;49.70;101091.44;4991953;28;20027;-51
2023/04/24 01:39:03;;;;;;;10.00;3.50;;;;;;;19.68;50.80;101091.25;4991700;28;20037;-51
2023/04/24 01:41:30;;;;;;;8.88;3.10;;;;;;;19.69;51.12;101087.44;4974446;28;20031;-51
2023/04/24 01:43:58;;;;;;;10.00;2.80;;;;;;;19.72;51.65;101086.13;4991553;28;20033;-52
2023/04/24 01:46:24;;;;;;;8.35;2.90;;;;;;;19.68;52.15;101080.38;4994315;28;20034;-51
2023/04/24 01:48:52;;;;;;;8.65;2.47;;;;;;;19.28;52.86;101097.13;4995328;28;20092;-51
2023/04/24 01:51:18;;;;;;;9.57;2.90;;;;;;;19.03;52.26;101084.13;4995898;28;20513;-50
2023/04/24 01:53:44;;;;;;;10.25;3.00;;;;;;;19.11;53.26;101080.16;4995693;28;20031;-51
2023/04/24 01:56:11;;;;;;;12.05;3.25;;;;;;;19.07;53.79;101085.25;4995707;28;20088;-50
2023/04/24 01:58:37;;;;;;;13.05;4.00;;;;;;;18.81;55.07;101077.91;4994868;28;20043;-51
2023/04/24 02:01:04;;;;;;;13.23;3.35;;;;;;;18.85;54.38;101081.78;4995761;28;20022;-50
2023/04/24 02:03:30;;;;;;;8.80;3.13;;;;;;;18.54;56.00;101081.38;4979386;28;20037;-47
2023/04/24 02:05:56;;;;;;;11.73;2.88;;;;;;;18.58;56.01;101090.66;5000068;28;20468;-51
2023/04/24 02:08:22;;;;;;;11.77;3.00;;;;;;;18.57;54.89;101080.88;5014971;28;20018;-51
2023/04/24 02:10:49;;;;;;;9.38;2.75;;;;;;;18.62;55.19;101086.38;4989322;28;20077;-50
2023/04/24 02:13:15;;;;;;;10.13;3.47;;;;;;;18.40;55.11;101082.84;4975697;28;20026;-51
2023/04/24 02:15:41;;;;;;;14.90;4.07;;;;;;;18.02;55.83;101098.06;4977278;28;20373;-51
2023/04/24 02:18:07;;;;;;;8.93;3.00;;;;;;;17.86;56.58;101093.47;4975683;28;20023;-48
2023/04/24 02:20:35;;;;;;;10.45;3.35;;;;;;;17.41;57.42;101103.31;4975022;28;20138;-49
2023/04/24 02:23:01;;;;;;;17.95;4.05;;;;;;;17.65;57.27;101097.72;4975695;28;20042;-52
2023/04/24 02:25:28;;;;;;;14.05;3.60;;;;;;;17.32;57.97;101104.78;4975637;28;20468;-50
2023/04/24 02:27:54;;;;;;;14.57;3.72;;;;;;;17.28;57.71;101095.50;4975407;28;20121;-52
2023/04/24 02:30:20;;;;;;;11.68;3.70;;;;;;;17.38;57.97;101101.09;4975460;28;20031;-48
2023/04/24 02:32:46;;;;;;;11.43;3.45;;;;;;;17.18;58.19;101106.16;4987442;28;20509;-51
2023/04/24 02:35:13;;;;;;;7.50;3.35;;;;;;;17.00;59.40;101099.06;4994914;28;20034;-50
2023/04/24 02:37:39;;;;;;;14.10;3.85;;;;;;;17.10;59.67;101114.63;4995103;28;20026;-47
2023/04/24 02:40:06;;;;;;;13.63;3.53;;;;;;;16.93;59.89;101119.19;4994518;28;20015;-51
2023/04/24 02:42:32;;;;;;;13.93;3.90;;;;;;;16.82;60.34;101120.88;4993409;28;20022;-50
2023/04/24 02:44:58;;;;;;;14.30;4.45;;;;;;;16.59;60.95;101116.31;4988042;28;20030;-47
2023/04/24 02:47:25;;;;;;;16.33;4.25;;;;;;;16.45;61.71;101118.50;4977873;28;20574;-52
2023/04/24 02:49:51;;;;;;;14.38;4.22;;;;;;;16.22;62.37;101122.03;4994225;28;20031;-51
2023/04/24 02:52:17;;;;;;;17.80;3.90;;;;;;;16.27;62.60;101116.75;4994475;28;20018;-48
2023/04/24 02:54:43;;;;;;;18.45;4.30;;;;;;;16.20;63.09;101126.84;5000876;23;20054;-51
2023/04/24 02:57:10;;;;;;;17.48;4.40;;;;;;;16.23;63.12;101133.66;4994363;28;20420;-51
2023/04/24 02:59:36;;;;;;;15.50;4.43;;;;;;;16.15;63.18;101134.00;4994106;28;20042;-48
2023/04/24 03:02:02;;;;;;;13.32;3.63;;;;;;;16.18;63.03;101133.56;4994305;28;20445;-51
2023/04/24 03:04:28;;;;;;;17.15;3.90;;;;;;;16.14;63.79;101135.06;4994440;28;20050;-51
2023/04/24 03:06:54;;;;;;;18.38;4.20;;;;;;;16.05;63.33;101137.31;4993936;28;20073;-53
2023/04/24 03:09:21;;;;;;;15.55;4.32;;;;;;;15.87;64.07;101130.13;4985833;28;20030;-51
2023/04/24 03:11:49;;;;;;;13.02;4.47;;;;;;;15.91;63.97;101136.72;4982684;28;20026;-49
2023/04/24 03:14:15;;;;;;;19.20;4.65;;;;;;;15.94;63.90;101143.53;4990350;28;20033;-51
2023/04/24 03:16:42;;;;;;;19.23;4.10;;;;;;;15.86;64.50;101151.97;4991363;28;20030;-53
2023/04/24 03:19:08;;;;;;;10.82;3.50;;;;;;;15.90;64.15;101153.16;4989133;28;20400;-48
2023/04/24 03:21:35;;;;;;;11.88;4.00;;;;;;;15.87;64.48;101159.81;4994436;28;20471;-51
2023/04/24 03:24:02;;;;;;;15.23;3.97;;;;;;;15.95;63.90;101169.47;4993939;28;20034;-49
2023/04/24 03:26:28;;;;;;;13.73;4.32;;;;;;;15.79;64.59;101165.59;4993522;28;20026;-53
2023/04/24 03:28:54;;;;;;;15.30;4.13;;;;;;;15.60;64.72;101167.50;4993606;28;20019;-51
2023/04/24 03:31:21;;;;;;;17.67;3.90;;;;;;;15.64;64.22;101168.72;4989263;28;20029;-50
2023/04/24 03:33:47;;;;;;;14.43;4.00;;;;;;;15.50;65.16;101170.78;4993863;28;20056;-48
2023/04/24 03:36:13;;;;;;;22.58;4.03;;;;;;;15.45;65.28;101178.72;4993939;28;20471;-50
2023/04/24 03:38:39;;;;;;;14.88;3.42;;;;;;;15.58;64.77;101183.91;4993600;28;20114;-51
2023/04/24 03:41:06;;;;;;;17.05;4.05;;;;;;;15.66;64.16;101184.69;4994149;28;20057;-50
2023/04/24 03:43:34;;;;;;;13.32;3.70;;;;;;;15.51;64.84;101183.19;4993563;28;20066;-49
2023/04/24 03:46:00;;;;;;;12.90;3.97;;;;;;;15.58;65.07;101189.31;4994784;28;20057;-53
2023/04/24 03:48:27;;;;;;;15.77;4.22;;;;;;;15.44;65.33;101187.88;4990681;28;20030;-51
2023/04/24 03:50:53;;;;;;;17.88;4.22;;;;;;;15.39;65.73;101190.44;4983809;28;20014;-50
2023/04/24 03:53:19;;;;;;;19.13;4.00;;;;;;;15.36;66.02;101188.19;4993471;28;20050;-49
2023/04/24 03:55:46;;;;;;;13.05;4.32;;;;;;;15.11;66.37;101195.59;4990297;28;20027;-50
2023/04/24 03:58:14;;;;;;;14.80;4.35;;;;;;;14.82;67.02;101195.31;4993037;28;20030;-48
2023/04/24 04:00:40;;;;;;;20.33;4.45;;;;;;;14.80;67.22;101186.63;4992724;28;20133;-48
2023/04/24 04:03:07;;;;;;;17.30;5.55;;;;;;;14.90;67.16;101203.09;4992324;28;21499;-50
2023/04/24 04:05:33;;;;;;;16.40;3.88;;;;;;;14.83;67.45;101205.06;4987168;28;20037;-48
2023/04/24 04:08:00;;;;;;;21.98;4.50;;;;;;;14.77;67.82;101209.47;4973478;28;20027;-49
2023/04/24 04:10:26;;;;;;;16.88;4.35;;;;;;;14.80;67.90;101197.41;4998756;28;20121;-55
2023/04/24 04:12:52;;;;;;;20.73;4.13;;;;;;;14.84;67.82;101208.56;5012972;28;20461;-57
2023/04/24 04:15:18;;;;;;;20.20;4.75;;;;;;;14.74;68.25;101214.47;4995815;28;20034;-57
2023/04/24 04:17:45;;;;;;;16.02;4.28;;;;;;;14.60;68.93;101213.78;4992941;28;20022;-55
2023/04/24 04:20:12;;;;;;;18.20;4.85;;;;;;;14.50;69.54;101217.03;4992736;28;20034;-55
2023/04/24 04:22:38;;;;;;;21.52;4.93;;;;;;;14.60;69.62;101215.66;5005558;28;20025;-57
2023/04/24 04:25:05;;;;;;;22.00;4.65;;;;;;;14.49;69.66;101218.06;4985885;28;20036;-56
2023/04/24 04:27:31;;;;;;;19.35;5.28;;;;;;;14.47;69.84;101230.09;4985210;28;20027;-55
2023/04/24 04:30:04;;;;;;;12.60;4.72;;;;;;;14.55;69.52;101237.06;4974262;28;20041;-52
2023/04/24 04:32:34;;;;;;;24.17;4.85;;;;;;;14.58;69.11;101242.00;4990289;23;20530;-56
2023/04/24 04:35:04;;;;;;;18.42;4.50;;;;;;;14.55;69.01;101258.59;4973412;28;20030;-55
2023/04/24 04:37:31;;;;;;;19.15;5.00;;;;;;;14.45;69.08;101259.91;4979766;28;20035;-54
2023/04/24 04:39:58;;;;;;;15.27;4.75;;;;;;;14.50;68.46;101254.72;4973307;28;20376;-56
2023/04/24 04:42:26;;;;;;;19.80;5.07;;;;;;;14.51;68.46;101248.28;4973184;28;20029;-55
2023/04/24 04:44:53;;;;;;;16.65;4.28;;;;;;;14.43;69.16;101258.47;4974384;28;20035;-56
2023/04/24 04:47:24;;;;;;;16.70;4.05;;;;;;;14.44;68.89;101274.44;4989529;28;20034;-56
2023/04/24 04:49:53;;;;;;;14.77;4.50;;;;;;;14.46;68.99;101275.03;4990430;28;20089;-55
2023/04/24 04:52:20;;;;;;;18.67;4.93;;;;;;;14.34;69.58;101276.81;4984434;28;20038;-56
2023/04/24 04:54:46;;;;;;;17.92;4.85;;;;;;;14.45;69.23;101269.88;4974544;28;20356;-55
2023/04/24 04:57:13;;;;;;;19.90;5.00;;;;;;;14.43;69.45;101267.38;4976459;28;20026;-56
2023/04/24 04:59:40;;;;;;;18.88;4.63;;;;;;;14.40;69.76;101264.31;4988885;28;20022;-55
2023/04/24 05:02:07;;;;;;;13.77;4.07;;;;;;;14.34;69.08;101265.22;4992357;28;20026;-57
2023/04/24 05:04:33;;;;;;;17.00;4.70;;;;;;;14.30;68.95;101266.69;4990250;28;20058;-55
2023/04/24 05:06:59;;;;;;;17.75;4.97;;;;;;;14.22;69.07;101254.34;4991922;28;20389;-55
2023/04/24 05:09:27;;;;;;;20.63;4.70;;;;;;;13.97;69.50;101257.00;4987259;28;20082;-56
2023/04/24 05:11:54;;;;;;;17.08;4.88;;;;;;;14.00;69.28;101270.03;4986728;28;20397;-56
2023/04/24 05:14:20;;;;;;;16.75;6.25;;;;;;;13.89;69.83;101274.25;5012058;28;20474;-56
2023/04/24 05:16:47;;;;;;;20.00;4.60;;;;;;;13.87;69.64;101284.38;4996983;28;20041;-54
2023/04/24 05:19:14;;;;;;;16.88;4.35;;;;;;;13.99;69.36;101271.06;4992217;28;20026;-55
2023/04/24 05:21:41;;;;;;;22.98;4.80;;;;;;;13.81;69.76;101266.41;4996132;28;20113;-55
2023/04/24 05:24:07;;;;;;;19.02;4.90;;;;;;;13.82;69.86;101264.53;4996444;28;20061;-54
2023/04/24 05:26:33;;;;;;;21.98;4.55;;;;;;;13.70;70.24;101262.53;4996268;28;20442;-54
2023/04/24 05:29:00;;;;;;;17.98;4.95;;;;;;;13.71;70.00;101255.28;4995955;28;20109;-55
2023/04/24 05:31:26;;;;;;;20.95;5.07;;;;;;;13.64;70.15;101247.28;4995878;28;20122;-54
2023/04/24 05:33:52;;;;;;;32.35;6.22;;;;;;;13.70;69.92;101254.47;4996320;28;20497;-54
2023/04/24 05:36:18;;;;;;;17.85;4.53;;;;;;;13.63;70.23;101245.63;4996031;28;20033;-54
2023/04/24 05:38:45;;;;;;;20.80;5.20;;;;;;;13.59;69.93;101238.19;4995641;28;20041;-56
2023/04/24 05:41:11;;;;;;;18.63;5.00;;;;;;;13.56;69.75;101249.41;4995422;28;20061;-53
2023/04/24 05:43:37;;;;;;;26.27;5.20;;;;;;;13.40;70.83;101243.47;4995950;28;20037;-57
2023/04/24 05:46:03;;;;;;;25.60;5.72;;;;;;;13.29;70.88;101241.47;4990380;28;20023;-54
2023/04/24 05:48:30;;;;;;;27.15;6.10;;;;;;;13.26;70.82;101246.44;4976336;28;20057;-54
2023/04/24 05:50:56;;;;;;;17.83;4.78;;;;;;;13.35;70.61;101245.16;4985550;28;20034;-52
2023/04/24 05:53:23;;;;;;;22.17;5.28;;;;;;;13.22;71.23;101232.63;4993730;28;20456;-54
2023/04/24 05:55:49;;;;;;;24.73;5.47;;;;;;;13.31;71.08;101235.88;4995406;28;20121;-54
2023/04/24 05:58:15;;;;;;;23.42;5.72;;;;;;;13.19;71.45;101235.69;4992283;28;20041;-55
2023/04/24 06:00:44;;;;;;;28.83;6.30;;;;;;;13.24;71.33;101241.28;4977377;28;20034;-53
2023/04/24 06:03:10;;;;;;;30.90;5.85;;;;;;;13.15;71.56;101235.28;4995345;28;20041;-56
2023/04/24 06:05:36;;;;;;;17.67;4.70;;;;;;;12.96;72.58;101236.19;4991286;28;20035;-53
2023/04/24 06:08:03;;;;;;;21.70;5.97;;;;;;;13.02;72.27;101243.41;4994609;28;20105;-53
2023/04/24 06:10:29;;;;;;;37.97;6.53;;;;;;;13.03;72.31;101246.91;4994565;28;20098;-53
2023/04/24 06:13:00;;;;;;;18.83;5.25;;;;;;;12.96;72.73;101241.56;4995009;28;20034;-51
2023/04/24 06:15:28;;;;;;;22.92;5.60;;;;;;;12.98;72.67;101242.19;4994753;28;20050;-53
2023/04/24 06:17:55;;;;;;;24.17;6.43;;;;;;;12.96;72.61;101257.69;4995496;28;20489;-55
2023/04/24 06:20:21;;;;;;;24.35;6.25;;;;;;;12.99;73.04;101256.44;4993210;28;20058;-52
2023/04/24 06:22:47;;;;;;;23.50;7.18;;;;;;;13.02;72.55;101258.72;4990899;28;20031;-53
2023/04/24 06:25:14;;;;;;;27.33;6.30;;;;;;;12.77;73.64;101261.25;4994377;28;20038;-53
2023/04/24 06:27:40;;;;;;;26.75;6.38;;;;;;;12.81;73.62;101265.16;4994439;28;20027;-54
2023/04/24 06:30:07;;;;;;;25.52;6.78;;;;;;;12.67;74.51;101262.53;4993768;28;20038;-52
2023/04/24 06:32:33;;;;;;;22.70;5.95;;;;;;;12.74;73.65;101262.50;4993327;28;20564;-52
2023/04/24 06:34:59;;;;;;;21.02;6.05;;;;;;;12.78;73.87;101253.00;4993964;28;20034;-52
2023/04/24 06:37:26;;;;;;;20.50;6.03;;;;;;;12.72;73.97;101264.59;4994963;28;20022;-53
2023/04/24 06:39:52;;;;;;;34.72;6.85;;;;;;;12.55;75.18;101264.19;4973588;28;20039;-53
2023/04/24 06:42:20;;;;;;;27.77;7.20;;;;;;;12.58;74.93;101260.25;4994126;28;20026;-53
2023/04/24 06:44:46;;;;;;;29.52;6.72;;;;;;;12.55;75.45;101263.38;4993807;28;20038;-51
2023/04/24 06:47:16;;;;;;;25.90;6.45;;;;;;;12.50;75.69;101250.56;4988238;28;20030;-54
2023/04/24 06:49:42;;;;;;;29.48;7.05;;;;;;;12.58;74.92;101249.50;4992379;28;20451;-54
2023/04/24 06:52:09;;;;;;;28.15;6.35;;;;;;;12.43;75.29;101250.56;4985914;28;20385;-54
2023/04/24 06:54:35;;;;;;;26.58;6.43;;;;;;;12.42;75.65;101251.59;4992711;28;20133;-53
2023/04/24 06:57:02;;;;;;;17.05;6.05;;;;;;;12.37;75.59;101247.88;4993845;28;20238;-53
2023/04/24 06:59:29;;;;;;;25.13;6.55;;;;;;;12.46;75.29;101248.50;4985144;28;20405;-53
2023/04/24 07:01:56;;;;;;;19.25;6.28;;;;;;;12.50;75.02;101260.50;4994215;28;20034;-53
2023/04/24 07:04:24;;;;;;;27.75;6.38;;;;;;;12.52;74.83;101263.78;4992615;28;20030;-52
2023/04/24 07:06:51;;;;;;;22.98;6.50;;;;;;;12.62;74.32;101251.56;4989114;28;20086;-55
2023/04/24 07:09:18;;;;;;;24.63;6.90;;;;;;;12.52;74.76;101258.41;4992443;28;20550;-53
2023/04/24 07:11:45;;;;;;;18.15;5.72;;;;;;;12.35;75.33;101252.63;4990473;28;20026;-49
2023/04/24 07:14:12;;;;;;;23.63;5.47;;;;;;;12.19;76.05;101247.69;4994578;28;20041;-53
2023/04/24 07:16:38;;;;;;;28.08;6.22;;;;;;;12.27;75.90;101256.38;4994509;28;20030;-53
2023/04/24 07:19:07;;;;;;;22.27;6.07;;;;;;;12.28;75.98;101262.56;4993807;28;20033;-51
2023/04/24 07:21:34;;;;;;;22.75;6.18;;;;;;;12.24;76.17;101270.19;4993989;28;20035;-54
2023/04/24 07:24:00;;;;;;;28.55;6.78;;;;;;;12.20;76.41;101274.31;4993896;28;20031;-53
2023/04/24 07:26:30;;;;;;;24.17;5.65;;;;;;;12.23;76.44;101275.78;4993980;28;20054;-54
2023/04/24 07:28:56;;;;;;;25.55;5.85;;;;;;;12.33;76.16;101271.66;4993629;28;20050;-54
2023/04/24 07:31:22;;;;;;;21.75;6.05;;;;;;;12.09;77.08;101272.25;4993782;28;20054;-51
2023/04/24 07:33:49;;;;;;;26.27;6.18;;;;;;;12.10;76.98;101271.22;4993747;28;20446;-53
2023/04/24 07:36:18;;;;;;;22.13;5.38;;;;;;;11.96;77.73;101274.91;4989825;28;20026;-53
2023/04/24 07:38:46;;;;;;;26.35;5.95;;;;;;;11.99;77.47;101280.69;4993134;28;20399;-52
2023/04/24 07:41:13;;;;;;;25.58;5.85;;;;;;;11.94;77.73;101285.00;4986629;28;20157;-54
2023/04/24 07:43:40;;;;;;;19.27;6.07;;;;;;;11.93;77.95;101286.03;4973160;28;20059;-52
2023/04/24 07:46:07;;;;;;;24.58;6.30;;;;;;;11.84;78.09;101288.94;4978488;28;20026;-53
2023/04/24 07:48:35;;;;;;;26.40;5.65;;;;;;;11.86;78.12;101284.19;4989413;28;20030;-54
2023/04/24 07:51:02;;;;;;;28.75;7.72;;;;;;;11.91;77.93;101283.56;4985951;28;20109;-53
2023/04/24 07:53:28;;;;;;;32.70;7.22;;;;;;;11.86;78.01;101280.69;4974001;28;20033;-53
2023/04/24 07:55:56;;;;;;;27.65;6.50;;;;;;;11.92;77.57;101284.41;4977849;28;20120;-54
2023/04/24 07:58:22;;;;;;;31.65;7.32;;;;;;;11.74;78.03;101280.41;4988916;28;20037;-54
2023/04/24 08:00:48;;;;;;;19.83;5.65;;;;;;;11.82;77.73;101268.69;4993332;28;20121;-53
2023/04/24 08:03:18;;;;;;;24.65;6.50;;;;;;;11.73;78.14;101280.63;4993137;28;20089;-53
2023/04/24 08:05:44;;;;;;;24.58;5.90;;;;;;;11.83;77.63;101284.59;4993341;28;20145;-53
2023/04/24 08:08:10;;;;;;;19.83;5.47;;;;;;;11.87;77.31;101283.16;5005713;28;20080;-52
2023/04/24 08:10:37;;;;;;;25.90;6.28;;;;;;;11.77;77.33;101276.50;5012725;28;20037;-51
2023/04/24 08:13:03;;;;;;;30.55;6.68;;;;;;;11.84;77.01;101275.53;4997979;28;20068;-53
2023/04/24 08:15:29;;;;;;;20.95;6.60;;;;;;;11.92;77.13;101281.72;4992698;28;20022;-50
2023/04/24 08:17:57;;;;;;;21.63;6.85;;;;;;;11.80;77.24;101284.16;4992881;28;20108;-54
2023/04/24 08:20:23;;;;;;;21.58;6.22;;;;;;;11.61;78.46;101272.34;4992958;28;20034;-51
2023/04/24 08:22:49;;;;;;;22.17;6.18;;;;;;;11.54;78.46;101274.16;4992159;28;20034;-49
2023/04/24 08:25:17;;;;;;;25.10;6.90;;;;;;;11.39;79.50;101252.06;4990918;28;20037;-48
2023/04/24 08:27:43;;;;;;;30.05;6.63;;;;;;;11.45;79.22;101265.50;4982968;28;20027;-51
2023/04/24 08:30:10;;;;;;;28.92;7.20;;;;;;;11.32;79.84;101265.44;4988729;28;20032;-53
2023/04/24 08:32:37;;;;;;;23.55;7.13;;;;;;;11.39;79.44;101252.91;4990297;28;20383;-53
2023/04/24 08:35:03;;;;;;;30.17;6.47;;;;;;;11.37;79.33;101252.25;4992310;28;20133;-53
2023/04/24 08:37:30;;;;;;;30.70;6.03;;;;;;;11.41;79.11;101248.16;4990915;28;20033;-52
2023/04/24 08:39:56;;;;;;;30.42;8.32;;;;;;;11.35;79.06;101257.00;4992408;28;20034;-52
2023/04/24 08:42:22;;;;;;;24.08;6.07;;;;;;;11.38;79.22;101272.66;4991550;28;20064;-52
2023/04/24 08:44:51;;;;;;;27.92;7.63;;;;;;;11.41;79.09;101263.41;4981710;28;20054;-53
2023/04/24 08:47:19;;;;;;;28.58;6.38;;;;;;;11.34;79.17;101261.53;4992336;28;20069;-51
2023/04/24 08:49:48;;;;;;;29.02;7.15;;;;;;;11.27;79.78;101258.00;4989191;28;20137;-51
2023/04/24 08:52:15;;;;;;;29.40;6.50;;;;;;;11.32;79.88;101246.66;4988630;28;20022;-49
2023/04/24 08:54:45;;;;;;;20.80;6.72;;;;;;;11.22;80.27;101256.97;4992047;28;20125;-50
2023/04/24 08:57:14;;;;;;;26.05;5.95;;;;;;;11.23;80.23;101272.00;4992612;28;20030;-51
2023/04/24 08:59:42;;;;;;;23.90;6.68;;;;;;;11.41;79.47;101277.63;4992367;28;20488;-49
2023/04/24 09:02:11;;;;;;;24.67;6.82;;;;;;;11.39;79.87;101273.53;4992333;28;20041;-53
2023/04/24 09:04:38;;;;;;;37.05;7.07;;;;;;;11.23;80.74;101266.66;4991424;28;20026;-49
2023/04/24 09:07:06;;;;;;;28.10;6.97;;;;;;;11.29;80.31;101264.00;4992426;28;20030;-52
2023/04/24 09:09:34;;;;;;;30.27;7.05;;;;;;;11.34;80.33;101255.34;4992045;28;20054;-49
2023/04/24 09:12:01;;;;;;;26.45;7.00;;;;;;;11.39;80.26;101260.13;4992236;28;20053;-51
2023/04/24 09:14:31;;;;;;;23.25;6.60;;;;;;;11.43;80.10;101264.03;4992241;28;20035;-52
2023/04/24 09:16:57;;;;;;;27.50;6.18;;;;;;;11.20;81.18;101262.50;4992127;28;20026;-50
2023/04/24 09:19:23;;;;;;;21.10;6.28;;;;;;;11.20;81.23;101262.50;4974459;28;20439;-52
2023/04/24 09:21:52;;;;;;;26.25;7.05;;;;;;;11.02;82.34;101248.81;4992155;28;20113;-50
2023/04/24 09:24:22;;;;;;;27.13;6.70;;;;;;;11.16;81.89;101241.66;5001127;28;20371;-53
2023/04/24 09:26:57;;;;;;;39.72;6.82;;;;;;;11.15;82.22;101250.72;5011979;28;20030;-49
2023/04/24 09:29:23;;;;;;;31.52;7.35;;;;;;;11.04;82.85;101244.09;5011694;28;20029;-51
2023/04/24 09:31:49;;;;;;;37.08;7.72;;;;;;;11.00;83.04;101237.50;5011716;28;20034;-52
2023/04/24 09:34:25;;;;;;;27.73;7.78;;;;;;;11.02;82.63;101243.47;5011796;28;20061;-49
2023/04/24 09:36:52;;;;;;;32.45;7.53;;;;;;;10.99;82.75;101241.16;5006445;28;20038;-52
2023/04/24 09:39:22;;;;;;;20.55;6.32;;;;;;;11.02;82.45;101251.50;4990956;28;20049;-53
2023/04/24 09:41:50;;;;;;;30.15;7.60;;;;;;;11.01;82.06;101239.13;4972936;28;20026;-52
2023/04/24 09:44:21;;;;;;;29.95;6.68;;;;;;;11.01;81.86;101249.84;4972416;28;20501;-53
2023/04/24 09:46:53;;;;;;;28.48;6.88;;;;;;;11.08;82.00;101258.75;4987766;28;20034;-52
2023/04/24 09:49:25;;;;;;;22.63;6.22;;;;;;;11.09;81.97;101249.69;4991495;28;20101;-52
2023/04/24 09:51:52;;;;;;;24.25;6.78;;;;;;;11.10;81.71;101243.28;4991984;28;20042;-52
2023/04/24 09:54:22;;;;;;;29.30;6.82;;;;;;;11.06;82.08;101242.88;4991619;28;20029;-53
2023/04/24 09:56:51;;;;;;;19.42;6.10;;;;;;;10.99;81.91;101236.66;4991570;28;20517;-53
2023/04/24 09:59:19;;;;;;;25.35;6.57;;;;;;;10.91;81.98;101231.47;4991482;28;20031;-53
2023/04/24 10:01:48;;;;;;;33.67;7.25;;;;;;;10.84;82.15;101244.00;4992113;28;20164;-52
2023/04/24 10:04:23;;;;;;;32.97;7.13;;;;;;;10.72;82.97;101246.41;4991573;28;20092;-51
2023/04/24 10:06:50;;;;;;;34.53;7.00;;;;;;;10.88;82.24;101244.41;4992893;28;20022;-52
2023/04/24 10:09:19;;;;;;;32.33;6.45;;;;;;;10.82;82.35;101246.03;4995325;28;20505;-51
2023/04/24 10:11:47;;;;;;;30.05;7.25;;;;;;;10.68;82.86;101250.50;4995185;28;20030;-52
2023/04/24 10:14:18;;;;;;;29.88;7.47;;;;;;;10.78;82.26;101242.94;4993565;28;20364;-52
2023/04/24 10:16:48;;;;;;;33.22;7.47;;;;;;;10.71;82.50;101234.03;4994227;28;20050;-52
2023/04/24 10:19:15;;;;;;;34.90;7.32;;;;;;;10.68;82.56;101245.13;4993158;28;20026;-52
2023/04/24 10:21:46;;;;;;;29.73;6.75;;;;;;;10.67;82.22;101259.56;4992846;28;20031;-52
2023/04/24 10:24:22;;;;;;;30.23;7.15;;;;;;;10.70;81.94;101261.81;4992673;28;20430;-49
2023/04/24 10:26:48;;;;;;;31.75;8.15;;;;;;;10.68;81.98;101258.53;4992326;28;20034;-50
2023/04/24 10:29:17;;;;;;;34.05;8.45;;;;;;;10.67;82.16;101262.22;4993980;28;20038;-52
2023/04/24 10:31:47;;;;;;;30.30;7.47;;;;;;;10.52;82.84;101267.69;4992811;28;20038;-51
2023/04/24 10:34:16;;;;;;;36.28;7.85;;;;;;;10.55;82.97;101269.97;4992251;28;20037;-52
2023/04/24 10:36:51;;;;;;;35.53;8.30;;;;;;;10.58;82.49;101274.94;4993565;28;20152;-48
2023/04/24 10:39:18;;;;;;;41.40;8.18;;;;;;;10.54;82.50;101264.81;4991866;28;20438;-49
2023/04/24 10:41:46;;;;;;;30.50;7.20;;;;;;;10.51;82.40;101260.69;4992919;28;20041;-49
2023/04/24 10:44:15;;;;;;;35.92;9.00;;;;;;;10.56;82.00;101265.44;4988058;28;20015;-49
2023/04/24 10:46:53;;;;;;;28.88;7.38;;;;;;;10.47;82.32;101258.59;4993561;28;20405;-48
2023/04/24 10:49:29;;;;;;;39.65;8.25;;;;;;;10.53;81.66;101258.63;4992716;28;20034;-50
2023/04/24 10:52:02;;;;;;;25.50;7.22;;;;;;;10.52;81.50;101258.81;4991584;28;20117;-49
2023/04/24 10:54:46;;;;;;;28.67;7.65;;;;;;;10.49;81.44;101256.53;4975024;28;20030;-52
2023/04/24 10:57:22;;;;;;;26.08;7.65;;;;;;;10.48;81.18;101260.22;4992901;28;20573;-49
2023/04/24 10:59:51;;;;;;;32.25;8.10;;;;;;;10.42;81.22;101267.19;4992174;28;20290;-52
2023/04/24 11:02:18;;;;;;;26.00;6.90;;;;;;;10.48;80.43;101277.13;4993245;28;20026;-52
2023/04/24 11:04:46;;;;;;;25.83;7.20;;;;;;;10.42;80.47;101271.72;4993138;28;20578;-52
2023/04/24 11:07:12;;;;;;;30.30;7.57;;;;;;;10.52;80.13;101272.22;4990661;28;20391;-49
2023/04/24 11:09:42;;;;;;;26.75;6.35;;;;;;;10.49;80.09;101269.91;4992662;28;20096;-49
2023/04/24 11:12:11;;;;;;;28.98;7.07;;;;;;;10.51;79.72;101281.28;4992360;28;20578;-49
2023/04/24 11:14:56;;;;;;;26.10;7.43;;;;;;;10.45;79.82;101276.69;4992976;28;20022;-48
2023/04/24 11:17:40;;;;;;;34.77;7.93;;;;;;;10.38;80.31;101265.91;4992804;28;20069;-48
2023/04/24 11:20:12;;;;;;;30.23;8.07;;;;;;;10.34;80.11;101262.00;4993033;28;20364;-48